Airfield :
LOGIN :

Register | Disclaimer

   EN    FR    IT 

 










Legend :    VFR   Marginal VFR   IFR   Intensive IFR   Very Intensive IFR
Visi :
Ceiling :
>= 8 km
>= 3000ft
5 to 8 km
1000 to 3000 ft
1500m to 5 km
500 to 1000 ft
800 to 1500m
200 to 500 ft
< 800m
< 200 ft
Symbols :   Thunderstorms  Fog  Heavy snow  Heavy precipitations  Wind > 20 kt
SIGMETs :     Misc.  Thunderstorms  Icing  Turbulence  Mountain Waves  Volcanic Ashes







- Airport Elevation : 665 ft
- IATA code : NOC


EIKN - Connaught / Knock- Ireland West

CURRENT METAR :
  • 240800Z 19010KT 150V230 9999 BKN004 BKN014 14/14 Q1007 BECMG BKN006

EXPIRED METARs :
  • 240730Z 21014KT 160V230 4000 -DZ BKN003 BKN008 15/15 Q1007 BECMG 9999 BKN006
  • 240700Z 19012KT 160V230 0800 FG BKN003 BKN008 15/15 Q1006 TEMPO 1500
  • 240630Z 19010KT 150V220 1800 -DZ BKN003 BKN008 15/14 Q1006 TEMPO 1200
  • 240600Z 18010KT 140V220 4000 -DZ BKN003 BKN014 15/14 Q1006 NOSIG

TAF AMD TAF EIKN
Valid from the 24 at 07:00 until the 25 at 06:00 UTC


240721Z 2407/2506 20010KT 9999 BKN006
TEMPO 2407/2408 0800 FG BKN003
BECMG 2408/2410 FEW015 BKN030
BECMG 2416/2419 16010KT
BECMG 2421/2424 13013KT BKN010
PROB40
TEMPO 2502/2506 4000 -RADZ BKN004
TEMPO 2504/2506 13016G28KT
No reported NOTAMs for that airfield.



MET'MAP, your aeronautical weather chart ! - Copyright ORBIFLY December 2007 - Disclaimer

ORBIFLY MET'MAP TEAM :

Programming & Development : Alexandra Zaïnal
Concept & Development : Baudouin d'Aumeries
Co-Development & Prog : Marc-Olivier Méhu
Technical & hardware support : Manuel Goepfert

Contact : metmap@orbifly.com




SOURCES & CREDITS :

   NOAA